createdAt,value
2018-06-25T00:02:11.936Z,74.80
2018-06-25T00:04:39.805Z,72.40
2018-06-25T00:07:07.721Z,75.30
2018-06-25T00:09:35.585Z,75.80
2018-06-25T00:12:03.548Z,75.40
2018-06-25T00:14:31.421Z,75.00
2018-06-25T00:16:59.295Z,74.10
2018-06-25T00:19:27.229Z,75.20
2018-06-25T00:21:55.089Z,75.30
2018-06-25T00:24:23.053Z,74.50
2018-06-25T00:26:51.001Z,76.00
2018-06-25T00:29:22.712Z,76.20
2018-06-25T00:31:50.662Z,74.90
2018-06-25T00:34:18.557Z,75.10
2018-06-25T00:36:46.449Z,74.50
2018-06-25T00:39:14.473Z,75.70
2018-06-25T00:41:42.354Z,76.50
2018-06-25T00:44:10.310Z,74.60
2018-06-25T00:46:38.169Z,73.70
2018-06-25T00:49:06.250Z,75.50
2018-06-25T00:51:34.112Z,72.40
2018-06-25T00:54:02.087Z,72.70
2018-06-25T00:56:30.024Z,73.00
2018-06-25T00:59:15.066Z,73.80
2018-06-25T01:01:43.050Z,75.80
2018-06-25T01:04:11.126Z,74.90
2018-06-25T01:06:39.066Z,76.10
2018-06-25T01:09:09.578Z,74.90
2018-06-25T01:11:41.116Z,76.20
2018-06-25T01:14:09.128Z,76.10
2018-06-25T01:16:37.048Z,76.00
2018-06-25T01:19:04.965Z,74.20
2018-06-25T01:24:01.189Z,76.20
2018-06-25T01:26:29.163Z,75.10
2018-06-25T01:28:57.004Z,75.40
2018-06-25T01:31:24.942Z,75.70
2018-06-25T01:33:52.814Z,76.10
2018-06-25T01:36:20.708Z,75.50
2018-06-25T01:38:48.597Z,73.30
2018-06-25T01:41:16.481Z,75.20
2018-06-25T01:43:44.364Z,72.90
2018-06-25T01:46:12.349Z,74.40
2018-06-25T01:48:40.245Z,76.00
2018-06-25T01:51:08.070Z,75.80
2018-06-25T01:53:36.045Z,78.20
2018-06-25T01:56:04.453Z,76.60
2018-06-25T01:58:32.441Z,77.70
2018-06-25T02:01:00.320Z,79.30
2018-06-25T02:03:28.225Z,77.60
2018-06-25T02:05:56.147Z,77.40
2018-06-25T02:08:24.045Z,77.30
2018-06-25T02:10:51.952Z,77.80
2018-06-25T02:13:19.908Z,76.80
2018-06-25T02:15:47.837Z,74.90
2018-06-25T02:18:15.834Z,76.50
2018-06-25T02:20:43.769Z,79.80
2018-06-25T02:23:11.733Z,78.60
2018-06-25T02:25:39.636Z,79.00
2018-06-25T02:28:07.630Z,77.20
2018-06-25T02:30:35.641Z,78.90
2018-06-25T02:33:03.719Z,77.60
2018-06-25T02:35:31.637Z,78.30
2018-06-25T02:37:59.675Z,78.70
2018-06-25T02:40:27.498Z,77.50
2018-06-25T02:42:55.461Z,77.60
2018-06-25T02:45:23.377Z,77.20
2018-06-25T02:47:51.283Z,78.40
2018-06-25T02:50:19.161Z,78.50
2018-06-25T02:52:47.046Z,78.10
2018-06-25T02:55:14.972Z,80.60
2018-06-25T03:00:10.806Z,77.80
2018-06-25T03:02:38.769Z,78.70
2018-06-25T03:05:07.280Z,78.10
2018-06-25T03:07:35.211Z,79.40
2018-06-25T03:10:03.204Z,80.70
2018-06-25T03:14:59.143Z,78.90
2018-06-25T03:17:27.095Z,81.00
2018-06-25T03:19:54.989Z,78.90
2018-06-25T03:22:22.849Z,81.00
2018-06-25T03:24:50.913Z,80.40
2018-06-25T03:27:18.848Z,80.30
2018-06-25T03:29:46.772Z,80.20
2018-06-25T03:32:14.737Z,80.50
2018-06-25T03:34:42.656Z,79.90
2018-06-25T03:37:10.605Z,80.40
2018-06-25T03:39:38.635Z,80.90
2018-06-25T03:42:06.701Z,81.50
2018-06-25T03:44:34.645Z,79.80
2018-06-25T03:49:30.520Z,83.20
2018-06-25T03:51:58.517Z,82.90
2018-06-25T03:54:26.429Z,82.90
2018-06-25T03:56:54.360Z,83.50
2018-06-25T03:59:22.283Z,82.00
2018-06-25T04:01:50.205Z,82.90
2018-06-25T04:04:18.018Z,82.50
2018-06-25T04:06:45.987Z,82.30
2018-06-25T04:09:13.941Z,83.70
2018-06-25T04:11:41.942Z,83.60
2018-06-25T04:14:10.137Z,84.20
2018-06-25T04:16:38.057Z,84.20
2018-06-25T04:19:09.505Z,83.10
2018-06-25T04:21:37.597Z,82.50
2018-06-25T04:24:05.537Z,84.50
2018-06-25T04:26:33.613Z,83.10
2018-06-25T04:29:02.178Z,83.10
2018-06-25T04:33:58.605Z,82.80
2018-06-25T04:36:26.521Z,82.90
2018-06-25T04:41:22.429Z,82.20
2018-06-25T04:43:50.542Z,81.80
2018-06-25T04:46:18.379Z,80.70
2018-06-25T04:48:46.274Z,79.60
2018-06-25T04:51:14.193Z,80.60
2018-06-25T04:53:42.657Z,82.30
2018-06-25T04:58:38.918Z,82.70
2018-06-25T05:01:08.654Z,81.90
2018-06-25T05:03:36.626Z,81.80
2018-06-25T05:06:04.642Z,81.70
2018-06-25T05:08:32.570Z,83.00
2018-06-25T05:11:01.051Z,82.20
2018-06-25T05:13:29.013Z,81.90
2018-06-25T05:15:57.205Z,81.50
2018-06-25T05:18:25.796Z,82.00
2018-06-25T05:20:53.729Z,81.50
2018-06-25T05:23:21.684Z,80.80
2018-06-25T05:25:49.701Z,81.80
2018-06-25T05:28:17.667Z,80.00
2018-06-25T05:30:45.613Z,80.90
2018-06-25T05:33:13.446Z,80.20
2018-06-25T05:35:41.421Z,77.90
2018-06-25T05:38:09.474Z,79.70
2018-06-25T05:40:37.447Z,78.80
2018-06-25T05:45:37.099Z,77.70
2018-06-25T05:48:05.026Z,76.20
2018-06-25T05:50:32.949Z,78.20
2018-06-25T05:53:00.818Z,77.60
2018-06-25T05:55:29.052Z,77.40
2018-06-25T05:57:57.212Z,74.40
2018-06-25T06:00:25.142Z,76.50
2018-06-25T06:02:53.077Z,75.30
2018-06-25T06:05:21.015Z,76.80
2018-06-25T06:07:49.086Z,77.20
2018-06-25T06:10:17.025Z,76.90
2018-06-25T06:12:44.942Z,76.20
2018-06-25T06:15:12.905Z,76.80
2018-06-25T06:17:40.856Z,75.00
2018-06-25T06:20:08.725Z,73.90
2018-06-25T06:22:36.690Z,72.80
2018-06-25T06:25:04.694Z,73.00
2018-06-25T06:27:32.597Z,73.50
2018-06-25T06:30:00.493Z,73.40
2018-06-25T06:32:28.437Z,72.50
2018-06-25T06:34:56.338Z,72.40
2018-06-25T06:37:24.257Z,71.60
2018-06-25T06:39:52.257Z,72.50
2018-06-25T06:42:20.154Z,72.00
2018-06-25T06:44:48.132Z,72.00
2018-06-25T06:47:16.045Z,72.10
2018-06-25T06:49:43.937Z,71.90
2018-06-25T06:52:11.800Z,71.30
2018-06-25T06:54:39.700Z,71.70
2018-06-25T06:57:07.598Z,73.70
2018-06-25T06:59:35.522Z,72.40
2018-06-25T07:02:03.500Z,72.10
2018-06-25T07:04:31.478Z,72.00
2018-06-25T07:06:59.345Z,70.40
2018-06-25T07:09:27.240Z,72.00
2018-06-25T07:11:55.157Z,70.10
2018-06-25T07:14:23.102Z,68.40
2018-06-25T07:16:51.038Z,68.20
2018-06-25T07:19:18.952Z,68.10
2018-06-25T07:21:46.827Z,67.70
2018-06-25T07:24:14.719Z,68.20
2018-06-25T07:26:42.693Z,67.90
2018-06-25T07:29:10.596Z,66.90
2018-06-25T07:31:38.591Z,68.40
2018-06-25T07:34:06.541Z,68.40
2018-06-25T07:36:34.394Z,68.10
2018-06-25T07:39:02.354Z,67.90
2018-06-25T07:41:30.313Z,68.60
2018-06-25T07:43:58.362Z,67.70
2018-06-25T07:46:26.246Z,68.10
2018-06-25T07:48:54.384Z,66.40
2018-06-25T07:51:22.257Z,66.60
2018-06-25T07:53:50.138Z,66.50
2018-06-25T07:56:18.086Z,65.20
2018-06-25T07:58:46.068Z,65.00
2018-06-25T08:01:13.957Z,66.40
2018-06-25T08:03:41.873Z,65.20
2018-06-25T08:06:09.778Z,65.90
2018-06-25T08:11:05.626Z,65.10
2018-06-25T08:13:33.568Z,64.20
2018-06-25T08:16:01.576Z,62.00
2018-06-25T08:18:29.497Z,60.30
2018-06-25T08:20:57.482Z,60.70
2018-06-25T08:23:25.397Z,59.50
2018-06-25T08:25:53.333Z,59.10
2018-06-25T08:28:21.269Z,60.50
2018-06-25T08:30:49.124Z,59.70
2018-06-25T08:33:16.993Z,58.90
2018-06-25T08:35:44.973Z,59.50
2018-06-25T08:38:12.856Z,58.90
2018-06-25T08:40:40.774Z,57.80
2018-06-25T08:43:08.633Z,56.80
2018-06-25T08:45:36.566Z,58.00
2018-06-25T08:48:05.134Z,58.20
2018-06-25T08:50:33.044Z,56.30
2018-06-25T08:53:00.894Z,56.30
2018-06-25T08:55:28.797Z,56.00
2018-06-25T08:57:56.685Z,55.50
2018-06-25T09:00:24.597Z,56.30
2018-06-25T09:05:20.432Z,54.70
2018-06-25T09:07:48.213Z,55.40
2018-06-25T09:10:16.121Z,53.70
2018-06-25T09:12:43.941Z,53.60
2018-06-25T09:15:11.921Z,52.80
2018-06-25T09:17:39.840Z,52.30
2018-06-25T09:20:07.678Z,51.90
2018-06-25T09:22:35.536Z,51.80
2018-06-25T09:27:36.987Z,50.80
2018-06-25T09:30:06.961Z,51.50
2018-06-25T09:32:34.872Z,50.80
2018-06-25T09:35:03.077Z,50.00
2018-06-25T09:37:31.029Z,49.50
2018-06-25T09:39:58.885Z,49.50
2018-06-25T09:42:26.830Z,50.80
2018-06-25T09:44:54.745Z,51.80
2018-06-25T09:47:22.638Z,51.10
2018-06-25T09:49:50.645Z,51.30
2018-06-25T09:52:18.579Z,51.80
2018-06-25T09:54:46.470Z,51.40
2018-06-25T09:57:14.434Z,51.80
2018-06-25T09:59:42.313Z,51.50
2018-06-25T10:02:10.298Z,50.10
2018-06-25T10:04:38.449Z,49.80
2018-06-25T10:07:06.301Z,49.40
2018-06-25T10:09:34.195Z,48.70
2018-06-25T10:12:02.046Z,47.70
2018-06-25T10:14:29.963Z,47.80
2018-06-25T10:16:57.866Z,47.10
2018-06-25T10:19:25.689Z,46.50
2018-06-25T10:21:53.593Z,46.50
2018-06-25T10:24:21.441Z,46.80
2018-06-25T10:26:49.653Z,46.40
2018-06-25T10:29:17.588Z,46.40
2018-06-25T10:31:45.517Z,44.80
2018-06-25T10:34:13.405Z,42.50
2018-06-25T10:36:41.320Z,43.60
2018-06-25T10:39:10.209Z,43.70
2018-06-25T10:41:38.105Z,43.70
2018-06-25T10:46:36.450Z,43.70
2018-06-25T10:49:11.091Z,44.10
2018-06-25T10:51:39.691Z,43.40
2018-06-25T10:54:09.958Z,42.80
2018-06-25T10:56:37.812Z,41.80
2018-06-25T11:01:39.411Z,39.30
2018-06-25T11:04:09.876Z,37.00
2018-06-25T11:06:40.236Z,36.80
2018-06-25T11:09:12.480Z,35.10
2018-06-25T11:11:43.049Z,33.20
2018-06-25T11:14:15.505Z,33.20
2018-06-25T11:16:49.503Z,32.20
2018-06-25T11:19:24.716Z,32.70
2018-06-25T11:21:53.101Z,30.00
2018-06-25T11:24:22.522Z,30.00
2018-06-25T11:26:50.840Z,29.90
2018-06-25T11:29:18.652Z,30.30
2018-06-25T11:31:46.510Z,29.50
2018-06-25T11:34:14.426Z,30.10
2018-06-25T11:36:42.386Z,29.50
2018-06-25T11:39:11.425Z,30.20
2018-06-25T11:41:39.317Z,30.70
2018-06-25T11:44:07.188Z,30.00
2018-06-25T11:46:35.101Z,31.30
2018-06-25T11:49:03.508Z,32.60
2018-06-25T11:51:31.493Z,31.90
2018-06-25T11:54:00.828Z,32.10
2018-06-25T11:56:28.698Z,34.10
2018-06-25T12:01:24.387Z,32.90
2018-06-25T12:03:52.224Z,33.40
2018-06-25T12:06:20.118Z,32.00
2018-06-25T12:08:48.010Z,32.60
2018-06-25T12:11:15.853Z,33.40
2018-06-25T12:13:52.069Z,33.90
2018-06-25T12:16:20.105Z,34.90
2018-06-25T12:18:48.049Z,35.30
2018-06-25T12:21:15.874Z,34.90
2018-06-25T12:23:43.821Z,34.60
2018-06-25T12:26:14.259Z,33.00
2018-06-25T12:28:42.079Z,33.70
2018-06-25T12:31:09.918Z,33.50
2018-06-25T12:33:37.818Z,33.70
2018-06-25T12:38:37.501Z,33.60
2018-06-25T12:41:05.659Z,33.40
2018-06-25T12:43:33.533Z,34.70
2018-06-25T12:46:03.489Z,33.30
2018-06-25T12:48:31.447Z,32.80
2018-06-25T12:51:01.984Z,34.50
2018-06-25T12:53:32.848Z,36.50
2018-06-25T12:56:01.958Z,35.90
2018-06-25T13:00:57.802Z,36.40
2018-06-25T13:03:26.872Z,37.00
2018-06-25T13:05:56.893Z,35.10
2018-06-25T13:08:27.143Z,33.80
2018-06-25T13:10:56.310Z,32.70
2018-06-25T13:13:24.311Z,32.00
2018-06-25T13:15:53.901Z,32.90
2018-06-25T13:18:22.137Z,32.70
2018-06-25T13:20:51.786Z,31.90
2018-06-25T13:23:19.621Z,33.00
2018-06-25T13:25:48.665Z,33.90
2018-06-25T13:28:16.541Z,31.90
2018-06-25T13:30:44.409Z,32.80
2018-06-25T13:33:12.273Z,32.00
2018-06-25T13:35:40.154Z,32.80
2018-06-25T13:38:09.061Z,31.10
2018-06-25T13:40:36.922Z,33.40
2018-06-25T13:43:05.340Z,34.40
2018-06-25T13:45:41.256Z,35.30
2018-06-25T13:48:09.188Z,36.50
2018-06-25T13:50:42.679Z,37.00
2018-06-25T13:53:10.818Z,37.50
2018-06-25T13:55:38.774Z,38.30
2018-06-25T13:58:08.868Z,36.60
2018-06-25T14:00:38.088Z,36.60
2018-06-25T14:03:06.053Z,37.20
2018-06-25T14:05:33.902Z,37.00
2018-06-25T14:10:29.833Z,37.70
2018-06-25T14:12:57.753Z,37.70
2018-06-25T14:15:25.720Z,38.30
2018-06-25T14:17:53.713Z,37.90
2018-06-25T14:20:21.666Z,37.20
2018-06-25T14:22:49.710Z,37.20
2018-06-25T14:25:27.419Z,37.60
2018-06-25T14:28:01.469Z,38.20
2018-06-25T14:30:35.112Z,37.80
2018-06-25T14:33:03.990Z,37.30
2018-06-25T14:35:32.033Z,37.20
2018-06-25T14:37:59.976Z,37.30
2018-06-25T14:40:27.994Z,38.50
2018-06-25T14:42:55.820Z,38.90
2018-06-25T14:45:23.817Z,38.30
2018-06-25T14:47:51.685Z,38.70
2018-06-25T14:52:47.474Z,39.90
2018-06-25T14:55:15.433Z,39.40
2018-06-25T14:57:43.412Z,38.60
2018-06-25T15:00:15.846Z,39.60
2018-06-25T15:05:11.653Z,39.90
2018-06-25T15:07:39.501Z,39.30
2018-06-25T15:10:07.490Z,40.20
2018-06-25T15:12:35.612Z,39.50
2018-06-25T15:15:03.646Z,39.60
2018-06-25T15:17:31.596Z,39.80
2018-06-25T15:19:59.616Z,40.50
2018-06-25T15:24:55.238Z,39.70
2018-06-25T15:27:23.955Z,39.90
2018-06-25T15:32:19.725Z,39.60
2018-06-25T15:34:47.569Z,39.40
2018-06-25T15:37:15.441Z,38.90
2018-06-25T15:39:43.293Z,39.60
2018-06-25T15:42:11.218Z,39.20
2018-06-25T15:44:39.100Z,39.10
2018-06-25T15:47:07.047Z,39.10
2018-06-25T15:54:30.893Z,39.90
2018-06-25T15:56:58.844Z,39.70
2018-06-25T16:01:54.628Z,41.30
2018-06-25T16:04:22.445Z,40.00
2018-06-25T16:06:50.499Z,41.10
2018-06-25T16:09:18.358Z,41.80
2018-06-25T16:11:46.204Z,41.80
2018-06-25T16:14:14.243Z,40.90
2018-06-25T16:16:42.148Z,42.20
2018-06-25T16:19:10.044Z,42.10
2018-06-25T16:21:39.580Z,42.00
2018-06-25T16:24:07.830Z,42.50
2018-06-25T16:26:35.746Z,42.90
2018-06-25T16:29:03.728Z,42.80
2018-06-25T16:31:31.640Z,43.10
2018-06-25T16:33:59.569Z,43.70
2018-06-25T16:36:27.754Z,42.40
2018-06-25T16:38:55.687Z,42.60
2018-06-25T16:41:23.821Z,42.90
2018-06-25T16:43:51.754Z,42.80
2018-06-25T16:46:19.712Z,42.70
2018-06-25T16:48:47.609Z,43.10
2018-06-25T16:51:15.544Z,44.00
2018-06-25T16:53:43.469Z,44.30
2018-06-25T16:56:12.080Z,44.40
2018-06-25T16:58:43.008Z,44.60
2018-06-25T17:01:13.184Z,44.40
2018-06-25T17:03:41.122Z,44.10
2018-06-25T17:06:08.997Z,45.60
2018-06-25T17:08:36.877Z,45.50
2018-06-25T17:11:04.835Z,46.00
2018-06-25T17:13:32.842Z,46.00
2018-06-25T17:16:00.821Z,46.10
2018-06-25T17:18:28.893Z,45.50
2018-06-25T17:20:56.797Z,45.60
2018-06-25T17:23:24.701Z,45.70
2018-06-25T17:25:52.581Z,45.90
2018-06-25T17:28:20.497Z,46.00
2018-06-25T17:30:48.424Z,46.10
2018-06-25T17:33:16.589Z,46.40
2018-06-25T17:38:12.345Z,48.00
2018-06-25T17:40:40.241Z,47.60
2018-06-25T17:43:08.538Z,48.20
2018-06-25T17:45:36.501Z,47.90
2018-06-25T17:48:04.756Z,47.80
2018-06-25T17:53:00.692Z,48.80
2018-06-25T17:55:28.777Z,49.10
2018-06-25T17:57:57.616Z,49.30
2018-06-25T18:00:25.654Z,49.00
2018-06-25T18:02:57.795Z,49.40
2018-06-25T18:05:25.968Z,49.40
2018-06-25T18:07:53.917Z,49.80
2018-06-25T18:10:22.706Z,49.60
2018-06-25T18:12:50.784Z,49.90
2018-06-25T18:15:19.524Z,50.70
2018-06-25T18:17:47.449Z,51.00
2018-06-25T18:20:15.407Z,51.40
2018-06-25T18:22:43.335Z,51.30
2018-06-25T18:27:40.117Z,52.50
2018-06-25T18:30:08.072Z,52.90
2018-06-25T18:32:35.961Z,53.10
2018-06-25T18:35:04.092Z,53.20
2018-06-25T18:37:32.214Z,53.20
2018-06-25T18:42:28.478Z,53.90
2018-06-25T18:44:56.502Z,54.20
2018-06-25T18:47:24.686Z,54.70
2018-06-25T18:49:52.613Z,55.30
2018-06-25T18:52:20.554Z,55.40
2018-06-25T18:54:48.733Z,55.70
2018-06-25T18:57:17.560Z,56.50
2018-06-25T18:59:45.457Z,56.50
2018-06-25T19:02:13.456Z,56.60
2018-06-25T19:04:41.426Z,56.60
2018-06-25T19:07:09.485Z,56.80
2018-06-25T19:09:43.742Z,57.40
2018-06-25T19:12:18.032Z,57.10
2018-06-25T19:14:47.323Z,57.60
2018-06-25T19:17:15.157Z,58.00
2018-06-25T19:19:43.092Z,58.00
2018-06-25T19:22:13.978Z,58.40
2018-06-25T19:24:42.041Z,58.20
2018-06-25T19:27:10.040Z,58.80
2018-06-25T19:29:37.901Z,58.80
2018-06-25T19:32:06.196Z,59.30
2018-06-25T19:34:34.105Z,59.70
2018-06-25T19:37:01.945Z,60.60
2018-06-25T19:39:29.965Z,60.70
2018-06-25T19:41:58.109Z,60.70
2018-06-25T19:44:25.966Z,61.90
2018-06-25T19:46:54.135Z,61.60
2018-06-25T19:49:21.877Z,61.70
2018-06-25T19:54:18.413Z,62.20
2018-06-25T19:56:46.357Z,62.90
2018-06-25T19:59:14.285Z,64.30
2018-06-25T20:01:42.160Z,64.20
2018-06-25T20:04:10.046Z,64.10
2018-06-25T20:09:09.726Z,64.40
2018-06-25T20:11:37.669Z,65.60
2018-06-25T20:14:06.036Z,64.50
2018-06-25T20:16:35.064Z,64.60
2018-06-25T20:19:05.104Z,64.70
2018-06-25T20:21:34.458Z,65.10
2018-06-25T20:24:10.197Z,65.30
2018-06-25T20:26:40.360Z,64.30
2018-06-25T20:29:08.758Z,64.70
2018-06-25T20:31:40.287Z,64.90
2018-06-25T20:34:09.937Z,65.20
2018-06-25T20:36:38.789Z,64.00
2018-06-25T20:39:09.752Z,65.10
2018-06-25T20:41:44.260Z,64.70
2018-06-25T20:44:12.429Z,65.50
2018-06-25T20:46:40.474Z,63.70
2018-06-25T20:49:08.898Z,63.40
2018-06-25T20:51:39.924Z,64.00
2018-06-25T20:54:08.646Z,64.20
2018-06-25T20:56:38.164Z,65.40
2018-06-25T20:59:06.161Z,64.60
2018-06-25T21:01:34.209Z,65.20
2018-06-25T21:04:02.098Z,64.50
2018-06-25T21:06:34.698Z,64.70
2018-06-25T21:09:06.698Z,64.30
2018-06-25T21:11:36.084Z,65.00
2018-06-25T21:14:04.076Z,65.10
2018-06-25T21:16:34.442Z,65.80
2018-06-25T21:21:32.472Z,66.30
2018-06-25T21:24:01.709Z,66.90
2018-06-25T21:26:31.804Z,67.30
2018-06-25T21:29:06.211Z,65.80
2018-06-25T21:31:34.293Z,66.10
2018-06-25T21:34:02.233Z,68.10
2018-06-25T21:36:30.189Z,69.00
2018-06-25T21:38:59.096Z,69.40
2018-06-25T21:41:32.856Z,67.70
2018-06-25T21:44:07.414Z,68.10
2018-06-25T21:46:37.735Z,68.00
2018-06-25T21:49:07.828Z,69.60
2018-06-25T21:51:36.175Z,67.20
2018-06-25T21:54:05.010Z,69.10
2018-06-25T21:56:32.887Z,69.20
2018-06-25T21:59:00.872Z,69.50
2018-06-25T22:01:34.450Z,69.80
2018-06-25T22:04:03.363Z,71.10
2018-06-25T22:06:33.720Z,70.20
2018-06-25T22:09:01.845Z,69.70
2018-06-25T22:11:32.645Z,70.00
2018-06-25T22:14:00.974Z,70.60
2018-06-25T22:16:31.671Z,69.70
2018-06-25T22:19:00.092Z,70.70
2018-06-25T22:21:28.325Z,69.70
2018-06-25T22:23:57.141Z,71.50
2018-06-25T22:26:31.470Z,68.90
2018-06-25T22:29:01.069Z,70.00
2018-06-25T22:31:29.313Z,71.30
2018-06-25T22:34:01.876Z,68.80
2018-06-25T22:36:30.712Z,70.00
2018-06-25T22:38:58.888Z,69.10
2018-06-25T22:41:26.824Z,69.30
2018-06-25T22:44:06.225Z,68.60
2018-06-25T22:46:41.731Z,70.50
2018-06-25T22:49:10.830Z,70.50
2018-06-25T22:51:41.525Z,71.20
2018-06-25T22:54:11.186Z,69.70
2018-06-25T22:59:07.155Z,69.20
2018-06-25T23:01:35.364Z,68.40
2018-06-25T23:04:04.494Z,67.00
2018-06-25T23:06:35.408Z,67.40
2018-06-25T23:09:06.869Z,67.10
2018-06-25T23:11:34.917Z,68.60
2018-06-25T23:14:03.228Z,68.70
2018-06-25T23:16:31.302Z,68.60
2018-06-25T23:21:27.237Z,69.80
2018-06-25T23:23:55.101Z,68.30
2018-06-25T23:26:23.049Z,69.40
2018-06-25T23:28:52.140Z,68.20
2018-06-25T23:31:20.073Z,69.30
2018-06-25T23:33:47.970Z,69.40
2018-06-25T23:36:15.852Z,69.10
2018-06-25T23:38:43.803Z,68.60
2018-06-25T23:41:11.650Z,68.60
2018-06-25T23:43:39.569Z,68.80
2018-06-25T23:46:07.457Z,70.90
2018-06-25T23:48:35.386Z,69.40
2018-06-25T23:51:03.343Z,68.90
2018-06-25T23:55:59.045Z,68.80
2018-06-25T23:58:26.934Z,68.70
